sensor_id;sensor_type;location;lat;lon;timestamp;P1;durP1;ratioP1;P2;durP2;ratioP2
61806;SDS011;47726;52.766;6.606;2022-10-31T00:00:59;17.15;;;10.95;;
61806;SDS011;47726;52.766;6.606;2022-10-31T00:03:25;19.15;;;12.13;;
61806;SDS011;47726;52.766;6.606;2022-10-31T00:05:51;18.13;;;11.70;;
61806;SDS011;47726;52.766;6.606;2022-10-31T00:08:18;21.58;;;11.85;;
61806;SDS011;47726;52.766;6.606;2022-10-31T00:10:44;17.98;;;11.45;;
61806;SDS011;47726;52.766;6.606;2022-10-31T00:13:10;17.40;;;10.85;;
61806;SDS011;47726;52.766;6.606;2022-10-31T00:15:38;20.45;;;11.60;;
61806;SDS011;47726;52.766;6.606;2022-10-31T00:18:05;19.35;;;11.48;;
61806;SDS011;47726;52.766;6.606;2022-10-31T00:20:32;17.52;;;10.70;;
61806;SDS011;47726;52.766;6.606;2022-10-31T00:22:59;17.38;;;11.55;;
61806;SDS011;47726;52.766;6.606;2022-10-31T00:25:25;17.40;;;11.20;;
61806;SDS011;47726;52.766;6.606;2022-10-31T00:27:51;17.25;;;11.18;;
61806;SDS011;47726;52.766;6.606;2022-10-31T00:30:17;16.73;;;11.25;;
61806;SDS011;47726;52.766;6.606;2022-10-31T00:32:43;17.00;;;11.10;;
61806;SDS011;47726;52.766;6.606;2022-10-31T00:35:08;16.52;;;11.18;;
61806;SDS011;47726;52.766;6.606;2022-10-31T00:37:34;16.98;;;11.05;;
61806;SDS011;47726;52.766;6.606;2022-10-31T00:40:00;19.08;;;11.18;;
61806;SDS011;47726;52.766;6.606;2022-10-31T00:42:25;20.15;;;11.13;;
61806;SDS011;47726;52.766;6.606;2022-10-31T00:44:51;19.45;;;11.10;;
61806;SDS011;47726;52.766;6.606;2022-10-31T00:47:16;18.75;;;11.45;;
61806;SDS011;47726;52.766;6.606;2022-10-31T00:49:42;16.60;;;11.98;;
61806;SDS011;47726;52.766;6.606;2022-10-31T00:52:07;22.30;;;11.73;;
61806;SDS011;47726;52.766;6.606;2022-10-31T00:54:33;18.33;;;11.63;;
61806;SDS011;47726;52.766;6.606;2022-10-31T00:56:58;17.67;;;11.75;;
61806;SDS011;47726;52.766;6.606;2022-10-31T00:59:24;19.52;;;12.00;;
61806;SDS011;47726;52.766;6.606;2022-10-31T01:01:49;16.63;;;10.82;;
61806;SDS011;47726;52.766;6.606;2022-10-31T01:04:15;16.77;;;11.15;;
61806;SDS011;47726;52.766;6.606;2022-10-31T01:06:40;16.52;;;11.20;;
61806;SDS011;47726;52.766;6.606;2022-10-31T01:09:06;17.85;;;11.32;;
61806;SDS011;47726;52.766;6.606;2022-10-31T01:11:32;18.10;;;11.48;;
61806;SDS011;47726;52.766;6.606;2022-10-31T01:13:58;17.83;;;10.95;;
61806;SDS011;47726;52.766;6.606;2022-10-31T01:16:24;18.02;;;11.38;;
61806;SDS011;47726;52.766;6.606;2022-10-31T01:18:51;18.98;;;11.32;;
61806;SDS011;47726;52.766;6.606;2022-10-31T01:21:18;20.40;;;11.90;;
61806;SDS011;47726;52.766;6.606;2022-10-31T01:23:45;19.02;;;11.73;;
61806;SDS011;47726;52.766;6.606;2022-10-31T01:26:12;17.63;;;11.82;;
61806;SDS011;47726;52.766;6.606;2022-10-31T01:28:48;17.98;;;12.25;;
61806;SDS011;47726;52.766;6.606;2022-10-31T01:31:19;16.90;;;11.98;;
61806;SDS011;47726;52.766;6.606;2022-10-31T01:33:47;19.40;;;11.93;;
61806;SDS011;47726;52.766;6.606;2022-10-31T01:38:43;20.58;;;13.02;;
61806;SDS011;47726;52.766;6.606;2022-10-31T01:41:10;21.08;;;12.88;;
61806;SDS011;47726;52.766;6.606;2022-10-31T01:43:41;17.95;;;12.80;;
61806;SDS011;47726;52.766;6.606;2022-10-31T01:46:15;18.73;;;12.50;;
61806;SDS011;47726;52.766;6.606;2022-10-31T01:48:45;17.58;;;12.07;;
61806;SDS011;47726;52.766;6.606;2022-10-31T01:51:12;19.00;;;12.32;;
61806;SDS011;47726;52.766;6.606;2022-10-31T01:53:40;18.83;;;11.90;;
61806;SDS011;47726;52.766;6.606;2022-10-31T01:56:07;17.02;;;11.63;;
61806;SDS011;47726;52.766;6.606;2022-10-31T01:58:33;19.40;;;11.93;;
61806;SDS011;47726;52.766;6.606;2022-10-31T02:01:00;19.23;;;11.57;;
61806;SDS011;47726;52.766;6.606;2022-10-31T02:03:27;18.52;;;11.52;;
61806;SDS011;47726;52.766;6.606;2022-10-31T02:05:54;16.95;;;11.48;;
61806;SDS011;47726;52.766;6.606;2022-10-31T02:08:28;18.67;;;11.13;;
61806;SDS011;47726;52.766;6.606;2022-10-31T02:10:58;20.33;;;12.10;;
61806;SDS011;47726;52.766;6.606;2022-10-31T02:13:26;16.83;;;11.25;;
61806;SDS011;47726;52.766;6.606;2022-10-31T02:15:54;16.20;;;11.80;;
61806;SDS011;47726;52.766;6.606;2022-10-31T02:18:22;17.58;;;11.80;;
61806;SDS011;47726;52.766;6.606;2022-10-31T02:23:44;18.25;;;10.90;;
61806;SDS011;47726;52.766;6.606;2022-10-31T02:32:14;16.88;;;11.63;;
61806;SDS011;47726;52.766;6.606;2022-10-31T02:37:54;15.77;;;10.88;;
61806;SDS011;47726;52.766;6.606;2022-10-31T02:45:51;15.52;;;10.27;;
61806;SDS011;47726;52.766;6.606;2022-10-31T02:48:26;13.88;;;10.00;;
61806;SDS011;47726;52.766;6.606;2022-10-31T02:51:02;13.07;;;9.80;;
61806;SDS011;47726;52.766;6.606;2022-10-31T02:53:33;14.68;;;9.50;;
61806;SDS011;47726;52.766;6.606;2022-10-31T02:56:02;13.77;;;9.95;;
61806;SDS011;47726;52.766;6.606;2022-10-31T02:58:33;12.05;;;8.75;;
61806;SDS011;47726;52.766;6.606;2022-10-31T03:03:54;13.73;;;9.05;;
61806;SDS011;47726;52.766;6.606;2022-10-31T03:09:15;12.18;;;8.35;;
61806;SDS011;47726;52.766;6.606;2022-10-31T03:11:53;13.40;;;8.85;;
61806;SDS011;47726;52.766;6.606;2022-10-31T03:14:28;12.27;;;8.60;;
61806;SDS011;47726;52.766;6.606;2022-10-31T03:17:17;13.18;;;8.27;;
61806;SDS011;47726;52.766;6.606;2022-10-31T03:19:52;12.27;;;8.40;;
61806;SDS011;47726;52.766;6.606;2022-10-31T03:22:23;14.00;;;8.68;;
61806;SDS011;47726;52.766;6.606;2022-10-31T03:24:52;12.32;;;8.00;;
61806;SDS011;47726;52.766;6.606;2022-10-31T03:27:26;11.52;;;8.20;;
61806;SDS011;47726;52.766;6.606;2022-10-31T03:29:56;11.63;;;8.30;;
61806;SDS011;47726;52.766;6.606;2022-10-31T03:32:29;10.57;;;8.07;;
61806;SDS011;47726;52.766;6.606;2022-10-31T03:35:01;12.45;;;9.25;;
61806;SDS011;47726;52.766;6.606;2022-10-31T03:37:29;11.20;;;8.32;;
61806;SDS011;47726;52.766;6.606;2022-10-31T03:39:58;12.15;;;9.05;;
61806;SDS011;47726;52.766;6.606;2022-10-31T03:42:26;12.73;;;9.30;;
61806;SDS011;47726;52.766;6.606;2022-10-31T03:45:11;16.33;;;9.90;;
61806;SDS011;47726;52.766;6.606;2022-10-31T03:47:40;13.60;;;9.23;;
61806;SDS011;47726;52.766;6.606;2022-10-31T03:50:08;14.07;;;9.52;;
61806;SDS011;47726;52.766;6.606;2022-10-31T03:58:48;10.95;;;8.40;;
61806;SDS011;47726;52.766;6.606;2022-10-31T04:01:11;12.50;;;8.23;;
61806;SDS011;47726;52.766;6.606;2022-10-31T04:03:40;11.23;;;7.93;;
61806;SDS011;47726;52.766;6.606;2022-10-31T04:06:08;10.90;;;7.55;;
61806;SDS011;47726;52.766;6.606;2022-10-31T04:08:38;9.23;;;7.00;;
61806;SDS011;47726;52.766;6.606;2022-10-31T04:11:09;10.80;;;6.60;;
61806;SDS011;47726;52.766;6.606;2022-10-31T04:13:38;10.00;;;6.53;;
61806;SDS011;47726;52.766;6.606;2022-10-31T04:16:05;12.30;;;7.18;;
61806;SDS011;47726;52.766;6.606;2022-10-31T04:18:33;9.57;;;7.00;;
61806;SDS011;47726;52.766;6.606;2022-10-31T04:21:02;9.95;;;7.57;;
61806;SDS011;47726;52.766;6.606;2022-10-31T04:23:32;10.90;;;7.97;;
61806;SDS011;47726;52.766;6.606;2022-10-31T04:25:59;10.38;;;7.68;;
61806;SDS011;47726;52.766;6.606;2022-10-31T04:28:24;11.25;;;8.10;;
61806;SDS011;47726;52.766;6.606;2022-10-31T04:30:50;10.50;;;8.05;;
61806;SDS011;47726;52.766;6.606;2022-10-31T04:33:16;10.82;;;8.85;;
61806;SDS011;47726;52.766;6.606;2022-10-31T04:35:42;12.85;;;8.68;;
61806;SDS011;47726;52.766;6.606;2022-10-31T04:38:08;13.68;;;8.60;;
61806;SDS011;47726;52.766;6.606;2022-10-31T04:40:34;12.75;;;8.15;;
61806;SDS011;47726;52.766;6.606;2022-10-31T04:42:59;10.50;;;7.65;;
61806;SDS011;47726;52.766;6.606;2022-10-31T04:45:25;9.70;;;7.13;;
61806;SDS011;47726;52.766;6.606;2022-10-31T04:47:50;9.50;;;6.65;;
61806;SDS011;47726;52.766;6.606;2022-10-31T04:50:16;9.57;;;6.53;;
61806;SDS011;47726;52.766;6.606;2022-10-31T04:52:42;9.27;;;6.40;;
61806;SDS011;47726;52.766;6.606;2022-10-31T04:55:08;8.63;;;6.47;;
61806;SDS011;47726;52.766;6.606;2022-10-31T04:57:41;8.68;;;6.63;;
61806;SDS011;47726;52.766;6.606;2022-10-31T05:00:12;10.32;;;6.78;;
61806;SDS011;47726;52.766;6.606;2022-10-31T05:02:43;10.15;;;6.70;;
61806;SDS011;47726;52.766;6.606;2022-10-31T05:05:09;9.55;;;6.20;;
61806;SDS011;47726;52.766;6.606;2022-10-31T05:07:39;9.35;;;5.90;;
61806;SDS011;47726;52.766;6.606;2022-10-31T05:10:07;10.80;;;6.57;;
61806;SDS011;47726;52.766;6.606;2022-10-31T05:12:37;11.45;;;7.22;;
61806;SDS011;47726;52.766;6.606;2022-10-31T05:15:04;10.35;;;7.00;;
61806;SDS011;47726;52.766;6.606;2022-10-31T05:17:30;11.13;;;7.30;;
61806;SDS011;47726;52.766;6.606;2022-10-31T05:19:56;10.40;;;7.50;;
61806;SDS011;47726;52.766;6.606;2022-10-31T05:22:22;10.38;;;7.15;;
61806;SDS011;47726;52.766;6.606;2022-10-31T05:24:47;9.75;;;7.03;;
61806;SDS011;47726;52.766;6.606;2022-10-31T05:27:13;12.55;;;8.13;;
61806;SDS011;47726;52.766;6.606;2022-10-31T05:29:38;12.88;;;8.10;;
61806;SDS011;47726;52.766;6.606;2022-10-31T05:32:04;13.13;;;8.40;;
61806;SDS011;47726;52.766;6.606;2022-10-31T05:34:29;11.00;;;8.10;;
61806;SDS011;47726;52.766;6.606;2022-10-31T05:36:55;13.82;;;8.95;;
61806;SDS011;47726;52.766;6.606;2022-10-31T05:39:20;11.27;;;8.25;;
61806;SDS011;47726;52.766;6.606;2022-10-31T05:41:46;13.82;;;8.80;;
61806;SDS011;47726;52.766;6.606;2022-10-31T05:44:12;11.07;;;8.38;;
61806;SDS011;47726;52.766;6.606;2022-10-31T05:46:37;11.75;;;8.45;;
61806;SDS011;47726;52.766;6.606;2022-10-31T05:49:03;11.52;;;8.30;;
61806;SDS011;47726;52.766;6.606;2022-10-31T05:51:28;11.65;;;8.35;;
61806;SDS011;47726;52.766;6.606;2022-10-31T05:53:54;12.38;;;9.23;;
61806;SDS011;47726;52.766;6.606;2022-10-31T05:56:19;12.25;;;9.38;;
61806;SDS011;47726;52.766;6.606;2022-10-31T05:58:45;15.30;;;9.63;;
61806;SDS011;47726;52.766;6.606;2022-10-31T06:01:10;14.63;;;10.02;;
61806;SDS011;47726;52.766;6.606;2022-10-31T06:03:36;14.25;;;9.68;;
61806;SDS011;47726;52.766;6.606;2022-10-31T06:06:01;13.82;;;10.63;;
61806;SDS011;47726;52.766;6.606;2022-10-31T06:08:27;14.63;;;10.63;;
61806;SDS011;47726;52.766;6.606;2022-10-31T06:10:53;13.88;;;10.60;;
61806;SDS011;47726;52.766;6.606;2022-10-31T06:13:18;13.30;;;9.80;;
61806;SDS011;47726;52.766;6.606;2022-10-31T06:15:44;11.15;;;8.95;;
61806;SDS011;47726;52.766;6.606;2022-10-31T06:18:10;12.25;;;9.13;;
61806;SDS011;47726;52.766;6.606;2022-10-31T06:20:35;10.77;;;8.98;;
61806;SDS011;47726;52.766;6.606;2022-10-31T06:23:01;11.40;;;8.55;;
61806;SDS011;47726;52.766;6.606;2022-10-31T06:25:28;10.60;;;8.40;;
61806;SDS011;47726;52.766;6.606;2022-10-31T06:27:53;10.80;;;8.77;;
61806;SDS011;47726;52.766;6.606;2022-10-31T06:30:19;10.68;;;8.40;;
61806;SDS011;47726;52.766;6.606;2022-10-31T06:32:45;11.45;;;8.50;;
61806;SDS011;47726;52.766;6.606;2022-10-31T06:35:10;11.15;;;8.60;;
61806;SDS011;47726;52.766;6.606;2022-10-31T06:37:36;11.18;;;8.35;;
61806;SDS011;47726;52.766;6.606;2022-10-31T06:40:02;11.98;;;8.88;;
61806;SDS011;47726;52.766;6.606;2022-10-31T06:42:28;9.82;;;8.20;;
61806;SDS011;47726;52.766;6.606;2022-10-31T06:44:54;9.40;;;7.75;;
61806;SDS011;47726;52.766;6.606;2022-10-31T06:47:19;9.15;;;7.45;;
61806;SDS011;47726;52.766;6.606;2022-10-31T06:49:45;8.25;;;7.07;;
61806;SDS011;47726;52.766;6.606;2022-10-31T06:52:10;8.45;;;6.93;;
61806;SDS011;47726;52.766;6.606;2022-10-31T06:54:36;8.43;;;6.57;;
61806;SDS011;47726;52.766;6.606;2022-10-31T06:57:01;7.90;;;6.53;;
61806;SDS011;47726;52.766;6.606;2022-10-31T06:59:27;8.43;;;7.32;;
61806;SDS011;47726;52.766;6.606;2022-10-31T07:01:52;8.65;;;6.82;;
61806;SDS011;47726;52.766;6.606;2022-10-31T07:04:18;7.95;;;6.88;;
61806;SDS011;47726;52.766;6.606;2022-10-31T07:06:44;8.27;;;6.90;;
61806;SDS011;47726;52.766;6.606;2022-10-31T07:09:09;8.15;;;7.13;;
61806;SDS011;47726;52.766;6.606;2022-10-31T07:11:35;8.32;;;6.97;;
61806;SDS011;47726;52.766;6.606;2022-10-31T07:14:00;7.70;;;6.65;;
61806;SDS011;47726;52.766;6.606;2022-10-31T07:16:26;9.50;;;7.18;;
61806;SDS011;47726;52.766;6.606;2022-10-31T07:18:51;9.63;;;7.20;;
61806;SDS011;47726;52.766;6.606;2022-10-31T07:21:17;8.40;;;6.80;;
61806;SDS011;47726;52.766;6.606;2022-10-31T07:23:43;9.18;;;6.85;;
61806;SDS011;47726;52.766;6.606;2022-10-31T07:26:09;10.77;;;7.47;;
61806;SDS011;47726;52.766;6.606;2022-10-31T07:28:35;10.55;;;7.68;;
61806;SDS011;47726;52.766;6.606;2022-10-31T07:31:00;9.43;;;7.38;;
61806;SDS011;47726;52.766;6.606;2022-10-31T07:33:26;11.77;;;8.55;;
61806;SDS011;47726;52.766;6.606;2022-10-31T07:35:52;10.95;;;8.43;;
61806;SDS011;47726;52.766;6.606;2022-10-31T07:38:18;11.20;;;8.52;;
61806;SDS011;47726;52.766;6.606;2022-10-31T07:40:44;11.38;;;8.90;;
61806;SDS011;47726;52.766;6.606;2022-10-31T07:43:15;13.55;;;8.93;;
61806;SDS011;47726;52.766;6.606;2022-10-31T07:45:41;12.18;;;9.60;;
61806;SDS011;47726;52.766;6.606;2022-10-31T07:48:06;12.20;;;9.20;;
61806;SDS011;47726;52.766;6.606;2022-10-31T07:50:32;11.07;;;8.82;;
61806;SDS011;47726;52.766;6.606;2022-10-31T07:53:06;11.88;;;9.55;;
61806;SDS011;47726;52.766;6.606;2022-10-31T07:55:33;10.73;;;9.15;;
61806;SDS011;47726;52.766;6.606;2022-10-31T07:58:00;10.27;;;8.30;;
61806;SDS011;47726;52.766;6.606;2022-10-31T08:00:30;9.60;;;8.25;;
61806;SDS011;47726;52.766;6.606;2022-10-31T08:02:57;10.00;;;8.23;;
61806;SDS011;47726;52.766;6.606;2022-10-31T08:05:23;10.93;;;8.60;;
61806;SDS011;47726;52.766;6.606;2022-10-31T08:07:48;10.05;;;8.45;;
61806;SDS011;47726;52.766;6.606;2022-10-31T08:10:14;10.18;;;8.15;;
61806;SDS011;47726;52.766;6.606;2022-10-31T08:12:40;9.50;;;7.70;;
61806;SDS011;47726;52.766;6.606;2022-10-31T08:15:05;10.18;;;8.32;;
61806;SDS011;47726;52.766;6.606;2022-10-31T08:17:34;9.95;;;8.27;;
61806;SDS011;47726;52.766;6.606;2022-10-31T08:20:00;9.80;;;8.80;;
61806;SDS011;47726;52.766;6.606;2022-10-31T08:22:26;10.88;;;9.25;;
61806;SDS011;47726;52.766;6.606;2022-10-31T08:24:51;11.05;;;9.88;;
61806;SDS011;47726;52.766;6.606;2022-10-31T08:27:17;10.93;;;9.18;;
61806;SDS011;47726;52.766;6.606;2022-10-31T08:29:42;11.20;;;9.73;;
61806;SDS011;47726;52.766;6.606;2022-10-31T08:32:08;11.00;;;9.63;;
61806;SDS011;47726;52.766;6.606;2022-10-31T08:34:33;11.50;;;9.95;;
61806;SDS011;47726;52.766;6.606;2022-10-31T08:36:59;14.13;;;10.95;;
61806;SDS011;47726;52.766;6.606;2022-10-31T08:39:24;11.95;;;10.55;;
61806;SDS011;47726;52.766;6.606;2022-10-31T08:41:53;12.80;;;10.35;;
61806;SDS011;47726;52.766;6.606;2022-10-31T08:44:18;14.52;;;12.38;;
61806;SDS011;47726;52.766;6.606;2022-10-31T08:46:44;14.93;;;12.35;;
61806;SDS011;47726;52.766;6.606;2022-10-31T08:49:09;15.15;;;12.15;;
61806;SDS011;47726;52.766;6.606;2022-10-31T08:51:35;13.90;;;12.40;;
61806;SDS011;47726;52.766;6.606;2022-10-31T08:54:00;15.40;;;13.18;;
61806;SDS011;47726;52.766;6.606;2022-10-31T08:56:26;15.30;;;13.07;;
61806;SDS011;47726;52.766;6.606;2022-10-31T08:58:52;16.17;;;12.73;;
61806;SDS011;47726;52.766;6.606;2022-10-31T09:01:18;13.70;;;12.07;;
61806;SDS011;47726;52.766;6.606;2022-10-31T09:03:44;14.15;;;12.13;;
61806;SDS011;47726;52.766;6.606;2022-10-31T09:06:09;16.30;;;13.93;;
61806;SDS011;47726;52.766;6.606;2022-10-31T09:08:35;16.35;;;14.30;;
61806;SDS011;47726;52.766;6.606;2022-10-31T09:11:01;17.38;;;14.85;;
61806;SDS011;47726;52.766;6.606;2022-10-31T09:13:27;17.98;;;14.38;;
61806;SDS011;47726;52.766;6.606;2022-10-31T09:15:52;16.13;;;14.13;;
61806;SDS011;47726;52.766;6.606;2022-10-31T09:18:19;19.50;;;16.70;;
61806;SDS011;47726;52.766;6.606;2022-10-31T09:20:47;19.45;;;15.45;;
61806;SDS011;47726;52.766;6.606;2022-10-31T09:23:14;18.15;;;15.48;;
61806;SDS011;47726;52.766;6.606;2022-10-31T09:25:41;19.27;;;16.05;;
61806;SDS011;47726;52.766;6.606;2022-10-31T09:28:09;19.38;;;17.02;;
61806;SDS011;47726;52.766;6.606;2022-10-31T09:30:37;18.00;;;15.05;;
61806;SDS011;47726;52.766;6.606;2022-10-31T09:33:07;18.60;;;15.70;;
61806;SDS011;47726;52.766;6.606;2022-10-31T09:35:36;19.73;;;16.45;;
61806;SDS011;47726;52.766;6.606;2022-10-31T09:38:04;19.45;;;15.90;;
61806;SDS011;47726;52.766;6.606;2022-10-31T09:49:21;18.55;;;16.15;;
61806;SDS011;47726;52.766;6.606;2022-10-31T09:54:38;20.38;;;16.35;;
61806;SDS011;47726;52.766;6.606;2022-10-31T09:57:35;21.70;;;16.67;;
61806;SDS011;47726;52.766;6.606;2022-10-31T10:00:05;21.27;;;16.90;;
61806;SDS011;47726;52.766;6.606;2022-10-31T10:05:32;22.42;;;17.73;;
61806;SDS011;47726;52.766;6.606;2022-10-31T10:10:51;20.75;;;16.58;;
61806;SDS011;47726;52.766;6.606;2022-10-31T10:21:02;23.83;;;17.95;;
61806;SDS011;47726;52.766;6.606;2022-10-31T10:23:51;23.20;;;17.85;;
61806;SDS011;47726;52.766;6.606;2022-10-31T10:26:36;23.58;;;17.75;;
61806;SDS011;47726;52.766;6.606;2022-10-31T10:32:25;23.73;;;17.77;;
61806;SDS011;47726;52.766;6.606;2022-10-31T10:37:43;25.42;;;17.52;;
61806;SDS011;47726;52.766;6.606;2022-10-31T10:40:16;25.10;;;17.52;;
61806;SDS011;47726;52.766;6.606;2022-10-31T10:42:44;23.20;;;17.27;;
61806;SDS011;47726;52.766;6.606;2022-10-31T10:45:38;20.55;;;16.33;;
61806;SDS011;47726;52.766;6.606;2022-10-31T10:48:27;23.42;;;16.17;;
61806;SDS011;47726;52.766;6.606;2022-10-31T10:50:54;22.80;;;17.00;;
61806;SDS011;47726;52.766;6.606;2022-10-31T10:56:37;24.65;;;17.08;;
61806;SDS011;47726;52.766;6.606;2022-10-31T10:59:24;25.08;;;17.35;;
61806;SDS011;47726;52.766;6.606;2022-10-31T11:01:51;22.55;;;17.52;;
61806;SDS011;47726;52.766;6.606;2022-10-31T11:04:29;22.75;;;16.65;;
61806;SDS011;47726;52.766;6.606;2022-10-31T11:07:12;24.60;;;18.27;;
61806;SDS011;47726;52.766;6.606;2022-10-31T11:09:38;22.65;;;16.92;;
61806;SDS011;47726;52.766;6.606;2022-10-31T11:12:11;22.17;;;16.83;;
61806;SDS011;47726;52.766;6.606;2022-10-31T11:14:54;20.48;;;16.20;;
61806;SDS011;47726;52.766;6.606;2022-10-31T11:20:02;20.55;;;14.95;;
61806;SDS011;47726;52.766;6.606;2022-10-31T11:22:37;20.15;;;15.70;;
61806;SDS011;47726;52.766;6.606;2022-10-31T11:25:21;20.00;;;15.02;;
61806;SDS011;47726;52.766;6.606;2022-10-31T11:28:01;19.70;;;15.02;;
61806;SDS011;47726;52.766;6.606;2022-10-31T11:30:28;19.85;;;15.10;;
61806;SDS011;47726;52.766;6.606;2022-10-31T11:32:55;18.35;;;14.82;;
61806;SDS011;47726;52.766;6.606;2022-10-31T11:35:22;20.05;;;14.80;;
61806;SDS011;47726;52.766;6.606;2022-10-31T11:37:49;19.40;;;13.95;;
61806;SDS011;47726;52.766;6.606;2022-10-31T11:40:19;18.88;;;13.23;;
61806;SDS011;47726;52.766;6.606;2022-10-31T11:42:47;20.10;;;14.10;;
61806;SDS011;47726;52.766;6.606;2022-10-31T11:47:49;18.85;;;13.65;;
61806;SDS011;47726;52.766;6.606;2022-10-31T11:50:20;17.83;;;13.15;;
61806;SDS011;47726;52.766;6.606;2022-10-31T11:52:49;19.58;;;13.05;;
61806;SDS011;47726;52.766;6.606;2022-10-31T11:55:17;18.80;;;12.93;;
61806;SDS011;47726;52.766;6.606;2022-10-31T11:57:55;18.67;;;12.80;;
61806;SDS011;47726;52.766;6.606;2022-10-31T12:00:22;18.60;;;12.68;;
61806;SDS011;47726;52.766;6.606;2022-10-31T12:02:50;18.65;;;12.23;;
61806;SDS011;47726;52.766;6.606;2022-10-31T12:05:20;17.25;;;12.40;;
61806;SDS011;47726;52.766;6.606;2022-10-31T12:07:55;18.38;;;12.75;;
61806;SDS011;47726;52.766;6.606;2022-10-31T12:10:31;20.73;;;12.95;;
61806;SDS011;47726;52.766;6.606;2022-10-31T12:16:02;18.33;;;12.07;;
61806;SDS011;47726;52.766;6.606;2022-10-31T12:18:39;19.77;;;12.13;;
61806;SDS011;47726;52.766;6.606;2022-10-31T12:27:22;17.63;;;11.77;;
61806;SDS011;47726;52.766;6.606;2022-10-31T12:29:44;19.75;;;12.10;;
61806;SDS011;47726;52.766;6.606;2022-10-31T12:32:28;18.23;;;11.43;;
61806;SDS011;47726;52.766;6.606;2022-10-31T12:49:54;19.08;;;11.57;;
61806;SDS011;47726;52.766;6.606;2022-10-31T12:52:36;17.27;;;11.85;;
61806;SDS011;47726;52.766;6.606;2022-10-31T13:01:13;17.58;;;10.93;;
61806;SDS011;47726;52.766;6.606;2022-10-31T13:06:19;19.40;;;11.52;;
61806;SDS011;47726;52.766;6.606;2022-10-31T13:08:53;16.27;;;10.95;;
61806;SDS011;47726;52.766;6.606;2022-10-31T13:11:45;18.50;;;11.75;;
61806;SDS011;47726;52.766;6.606;2022-10-31T13:14:39;16.80;;;11.00;;
61806;SDS011;47726;52.766;6.606;2022-10-31T13:17:34;17.70;;;11.00;;
61806;SDS011;47726;52.766;6.606;2022-10-31T13:20:24;17.98;;;11.15;;
61806;SDS011;47726;52.766;6.606;2022-10-31T13:26:06;18.35;;;10.77;;
61806;SDS011;47726;52.766;6.606;2022-10-31T13:31:17;17.75;;;10.25;;
61806;SDS011;47726;52.766;6.606;2022-10-31T13:33:46;18.48;;;10.05;;
61806;SDS011;47726;52.766;6.606;2022-10-31T13:43:12;15.52;;;9.63;;
61806;SDS011;47726;52.766;6.606;2022-10-31T13:45:21;15.77;;;9.70;;
61806;SDS011;47726;52.766;6.606;2022-10-31T13:48:00;13.57;;;9.05;;
61806;SDS011;47726;52.766;6.606;2022-10-31T13:50:43;15.77;;;9.18;;
61806;SDS011;47726;52.766;6.606;2022-10-31T13:53:21;15.95;;;8.98;;
61806;SDS011;47726;52.766;6.606;2022-10-31T13:55:49;15.13;;;8.65;;
61806;SDS011;47726;52.766;6.606;2022-10-31T13:58:28;13.30;;;8.95;;
61806;SDS011;47726;52.766;6.606;2022-10-31T14:03:41;13.60;;;8.40;;
61806;SDS011;47726;52.766;6.606;2022-10-31T14:06:15;12.48;;;8.27;;
61806;SDS011;47726;52.766;6.606;2022-10-31T14:08:49;12.60;;;8.45;;
61806;SDS011;47726;52.766;6.606;2022-10-31T14:11:22;11.68;;;8.15;;
61806;SDS011;47726;52.766;6.606;2022-10-31T14:14:16;13.88;;;8.40;;
61806;SDS011;47726;52.766;6.606;2022-10-31T14:16:52;11.80;;;7.95;;
61806;SDS011;47726;52.766;6.606;2022-10-31T14:19:20;12.77;;;8.15;;
61806;SDS011;47726;52.766;6.606;2022-10-31T14:21:47;13.68;;;8.55;;
61806;SDS011;47726;52.766;6.606;2022-10-31T14:26:57;12.82;;;8.27;;
61806;SDS011;47726;52.766;6.606;2022-10-31T14:29:31;11.10;;;7.47;;
61806;SDS011;47726;52.766;6.606;2022-10-31T14:43:28;13.95;;;7.90;;
61806;SDS011;47726;52.766;6.606;2022-10-31T14:46:07;13.73;;;8.00;;
61806;SDS011;47726;52.766;6.606;2022-10-31T14:49:02;11.90;;;7.63;;
61806;SDS011;47726;52.766;6.606;2022-10-31T14:51:47;15.52;;;8.85;;
61806;SDS011;47726;52.766;6.606;2022-10-31T14:54:16;14.82;;;8.82;;
61806;SDS011;47726;52.766;6.606;2022-10-31T14:56:50;12.93;;;8.05;;
61806;SDS011;47726;52.766;6.606;2022-10-31T14:59:21;14.30;;;8.52;;
61806;SDS011;47726;52.766;6.606;2022-10-31T15:01:56;10.50;;;7.20;;
61806;SDS011;47726;52.766;6.606;2022-10-31T15:04:39;13.98;;;8.52;;
61806;SDS011;47726;52.766;6.606;2022-10-31T15:07:08;12.02;;;7.95;;
61806;SDS011;47726;52.766;6.606;2022-10-31T15:09:39;14.27;;;8.35;;
61806;SDS011;47726;52.766;6.606;2022-10-31T15:12:28;13.43;;;8.80;;
61806;SDS011;47726;52.766;6.606;2022-10-31T15:14:55;13.13;;;7.78;;
61806;SDS011;47726;52.766;6.606;2022-10-31T15:17:21;12.88;;;8.15;;
61806;SDS011;47726;52.766;6.606;2022-10-31T15:19:49;12.63;;;8.23;;
61806;SDS011;47726;52.766;6.606;2022-10-31T15:22:17;12.52;;;8.38;;
61806;SDS011;47726;52.766;6.606;2022-10-31T15:24:44;11.48;;;8.35;;
61806;SDS011;47726;52.766;6.606;2022-10-31T15:27:15;12.85;;;8.48;;
61806;SDS011;47726;52.766;6.606;2022-10-31T15:29:53;14.55;;;9.50;;
61806;SDS011;47726;52.766;6.606;2022-10-31T15:32:21;14.00;;;9.38;;
61806;SDS011;47726;52.766;6.606;2022-10-31T15:34:52;12.88;;;8.60;;
61806;SDS011;47726;52.766;6.606;2022-10-31T15:37:19;14.05;;;8.90;;
61806;SDS011;47726;52.766;6.606;2022-10-31T15:39:46;13.30;;;8.43;;
61806;SDS011;47726;52.766;6.606;2022-10-31T15:42:23;14.15;;;9.02;;
61806;SDS011;47726;52.766;6.606;2022-10-31T15:45:05;15.55;;;8.88;;
61806;SDS011;47726;52.766;6.606;2022-10-31T15:47:34;13.05;;;8.65;;
61806;SDS011;47726;52.766;6.606;2022-10-31T15:50:01;12.77;;;8.27;;
61806;SDS011;47726;52.766;6.606;2022-10-31T15:52:32;14.80;;;8.75;;
61806;SDS011;47726;52.766;6.606;2022-10-31T15:57:38;14.48;;;9.30;;
61806;SDS011;47726;52.766;6.606;2022-10-31T16:00:06;15.25;;;8.55;;
61806;SDS011;47726;52.766;6.606;2022-10-31T16:02:32;13.50;;;8.48;;
61806;SDS011;47726;52.766;6.606;2022-10-31T16:04:58;14.57;;;8.48;;
61806;SDS011;47726;52.766;6.606;2022-10-31T16:07:26;15.70;;;9.20;;
61806;SDS011;47726;52.766;6.606;2022-10-31T16:09:57;14.70;;;9.60;;
61806;SDS011;47726;52.766;6.606;2022-10-31T16:12:37;12.52;;;8.27;;
61806;SDS011;47726;52.766;6.606;2022-10-31T16:15:13;12.80;;;8.77;;
61806;SDS011;47726;52.766;6.606;2022-10-31T16:17:40;14.88;;;9.57;;
61806;SDS011;47726;52.766;6.606;2022-10-31T16:20:19;15.38;;;9.38;;
61806;SDS011;47726;52.766;6.606;2022-10-31T16:22:48;14.10;;;9.30;;
61806;SDS011;47726;52.766;6.606;2022-10-31T16:25:16;16.30;;;9.45;;
61806;SDS011;47726;52.766;6.606;2022-10-31T16:27:54;15.98;;;10.43;;
61806;SDS011;47726;52.766;6.606;2022-10-31T16:33:00;19.20;;;10.77;;
61806;SDS011;47726;52.766;6.606;2022-10-31T16:35:38;16.40;;;11.05;;
61806;SDS011;47726;52.766;6.606;2022-10-31T16:38:04;17.35;;;11.80;;
61806;SDS011;47726;52.766;6.606;2022-10-31T16:40:30;16.77;;;10.88;;
61806;SDS011;47726;52.766;6.606;2022-10-31T16:42:57;18.48;;;11.20;;
61806;SDS011;47726;52.766;6.606;2022-10-31T16:45:25;16.85;;;10.82;;
61806;SDS011;47726;52.766;6.606;2022-10-31T16:47:52;18.00;;;11.00;;
61806;SDS011;47726;52.766;6.606;2022-10-31T16:50:20;16.38;;;11.02;;
61806;SDS011;47726;52.766;6.606;2022-10-31T16:52:47;17.73;;;12.18;;
61806;SDS011;47726;52.766;6.606;2022-10-31T16:55:14;17.83;;;12.13;;
61806;SDS011;47726;52.766;6.606;2022-10-31T16:57:44;17.48;;;11.57;;
61806;SDS011;47726;52.766;6.606;2022-10-31T17:00:18;19.55;;;12.85;;
61806;SDS011;47726;52.766;6.606;2022-10-31T17:05:14;16.23;;;11.73;;